sensor_id;sensor_type;location;lat;lon;timestamp;temperature;humidity
15656;DHT22;7928;43.614;1.456;2024-02-28T00:01:48;8.20;99.90
15656;DHT22;7928;43.614;1.456;2024-02-28T00:04:15;8.20;99.90
15656;DHT22;7928;43.614;1.456;2024-02-28T00:06:42;8.20;99.90
15656;DHT22;7928;43.614;1.456;2024-02-28T00:09:10;8.20;99.90
15656;DHT22;7928;43.614;1.456;2024-02-28T00:11:42;8.20;99.90
15656;DHT22;7928;43.614;1.456;2024-02-28T00:14:09;8.20;99.90
15656;DHT22;7928;43.614;1.456;2024-02-28T00:16:40;8.20;99.90
15656;DHT22;7928;43.614;1.456;2024-02-28T00:19:07;8.20;99.90
15656;DHT22;7928;43.614;1.456;2024-02-28T00:21:34;8.20;99.90
15656;DHT22;7928;43.614;1.456;2024-02-28T00:24:01;8.20;99.90
15656;DHT22;7928;43.614;1.456;2024-02-28T00:26:28;8.20;99.90
15656;DHT22;7928;43.614;1.456;2024-02-28T00:28:55;8.20;99.90
15656;DHT22;7928;43.614;1.456;2024-02-28T00:31:22;8.20;99.90
15656;DHT22;7928;43.614;1.456;2024-02-28T00:33:51;8.20;99.90
15656;DHT22;7928;43.614;1.456;2024-02-28T00:36:18;8.20;99.90
15656;DHT22;7928;43.614;1.456;2024-02-28T00:38:45;8.20;99.90
15656;DHT22;7928;43.614;1.456;2024-02-28T00:41:12;8.20;99.90
15656;DHT22;7928;43.614;1.456;2024-02-28T00:43:39;8.20;99.90
15656;DHT22;7928;43.614;1.456;2024-02-28T00:46:06;8.20;99.90
15656;DHT22;7928;43.614;1.456;2024-02-28T00:48:37;8.20;99.90
15656;DHT22;7928;43.614;1.456;2024-02-28T00:51:05;8.20;99.90
15656;DHT22;7928;43.614;1.456;2024-02-28T00:53:33;8.20;99.90
15656;DHT22;7928;43.614;1.456;2024-02-28T00:56:00;8.20;99.90
15656;DHT22;7928;43.614;1.456;2024-02-28T00:58:28;8.20;99.90
15656;DHT22;7928;43.614;1.456;2024-02-28T01:00:55;8.20;99.90
15656;DHT22;7928;43.614;1.456;2024-02-28T01:03:22;8.10;99.90
15656;DHT22;7928;43.614;1.456;2024-02-28T01:05:50;8.10;99.90
15656;DHT22;7928;43.614;1.456;2024-02-28T01:08:18;8.10;99.90
15656;DHT22;7928;43.614;1.456;2024-02-28T01:10:45;8.10;99.90
15656;DHT22;7928;43.614;1.456;2024-02-28T01:13:14;8.20;99.90
15656;DHT22;7928;43.614;1.456;2024-02-28T01:15:41;8.20;99.90
15656;DHT22;7928;43.614;1.456;2024-02-28T01:18:09;8.10;99.90
15656;DHT22;7928;43.614;1.456;2024-02-28T01:20:36;8.10;99.90
15656;DHT22;7928;43.614;1.456;2024-02-28T01:23:03;8.10;99.90
15656;DHT22;7928;43.614;1.456;2024-02-28T01:25:32;8.10;99.90
15656;DHT22;7928;43.614;1.456;2024-02-28T01:27:59;8.00;99.90
15656;DHT22;7928;43.614;1.456;2024-02-28T01:30:26;8.10;99.90
15656;DHT22;7928;43.614;1.456;2024-02-28T01:32:53;8.10;99.90
15656;DHT22;7928;43.614;1.456;2024-02-28T01:35:20;8.10;99.90
15656;DHT22;7928;43.614;1.456;2024-02-28T01:37:47;8.00;99.90
15656;DHT22;7928;43.614;1.456;2024-02-28T01:40:15;8.10;99.90
15656;DHT22;7928;43.614;1.456;2024-02-28T01:42:43;8.00;99.90
15656;DHT22;7928;43.614;1.456;2024-02-28T01:45:13;8.00;99.90
15656;DHT22;7928;43.614;1.456;2024-02-28T01:47:40;8.00;99.90
15656;DHT22;7928;43.614;1.456;2024-02-28T01:50:08;8.10;99.90
15656;DHT22;7928;43.614;1.456;2024-02-28T01:52:36;8.00;99.90
15656;DHT22;7928;43.614;1.456;2024-02-28T01:55:05;8.00;99.90
15656;DHT22;7928;43.614;1.456;2024-02-28T01:57:36;8.00;99.90
15656;DHT22;7928;43.614;1.456;2024-02-28T02:00:07;8.00;99.90
15656;DHT22;7928;43.614;1.456;2024-02-28T02:02:35;8.00;99.90
15656;DHT22;7928;43.614;1.456;2024-02-28T02:05:02;8.00;99.90
15656;DHT22;7928;43.614;1.456;2024-02-28T02:07:31;8.00;99.90
15656;DHT22;7928;43.614;1.456;2024-02-28T02:09:58;7.90;99.90
15656;DHT22;7928;43.614;1.456;2024-02-28T02:12:25;7.90;99.90
15656;DHT22;7928;43.614;1.456;2024-02-28T02:14:52;7.90;99.90
15656;DHT22;7928;43.614;1.456;2024-02-28T02:17:21;7.90;99.90
15656;DHT22;7928;43.614;1.456;2024-02-28T02:19:48;8.00;99.90
15656;DHT22;7928;43.614;1.456;2024-02-28T02:22:15;7.90;99.90
15656;DHT22;7928;43.614;1.456;2024-02-28T02:24:44;7.90;99.90
15656;DHT22;7928;43.614;1.456;2024-02-28T02:27:11;7.90;99.90
15656;DHT22;7928;43.614;1.456;2024-02-28T02:29:38;7.90;99.90
15656;DHT22;7928;43.614;1.456;2024-02-28T02:32:06;7.90;99.90
15656;DHT22;7928;43.614;1.456;2024-02-28T02:34:33;7.90;99.90
15656;DHT22;7928;43.614;1.456;2024-02-28T02:37:00;7.90;99.90
15656;DHT22;7928;43.614;1.456;2024-02-28T02:39:27;7.80;99.90
15656;DHT22;7928;43.614;1.456;2024-02-28T02:41:55;7.70;99.90
15656;DHT22;7928;43.614;1.456;2024-02-28T02:44:23;7.80;99.90
15656;DHT22;7928;43.614;1.456;2024-02-28T02:46:50;7.80;99.90
15656;DHT22;7928;43.614;1.456;2024-02-28T02:49:17;7.80;99.90
15656;DHT22;7928;43.614;1.456;2024-02-28T02:51:44;7.80;99.90
15656;DHT22;7928;43.614;1.456;2024-02-28T02:54:12;7.80;99.90
15656;DHT22;7928;43.614;1.456;2024-02-28T02:56:41;7.80;99.90
15656;DHT22;7928;43.614;1.456;2024-02-28T02:59:10;7.80;99.90
15656;DHT22;7928;43.614;1.456;2024-02-28T03:01:37;7.70;99.90
15656;DHT22;7928;43.614;1.456;2024-02-28T03:04:05;7.80;99.90
15656;DHT22;7928;43.614;1.456;2024-02-28T03:06:32;7.80;99.90
15656;DHT22;7928;43.614;1.456;2024-02-28T03:08:59;7.80;99.90
15656;DHT22;7928;43.614;1.456;2024-02-28T03:11:26;7.70;99.90
15656;DHT22;7928;43.614;1.456;2024-02-28T03:13:53;7.70;99.90
15656;DHT22;7928;43.614;1.456;2024-02-28T03:16:21;7.70;99.90
15656;DHT22;7928;43.614;1.456;2024-02-28T03:18:48;7.70;99.90
15656;DHT22;7928;43.614;1.456;2024-02-28T03:21:15;7.70;99.90
15656;DHT22;7928;43.614;1.456;2024-02-28T03:23:42;7.70;99.90
15656;DHT22;7928;43.614;1.456;2024-02-28T03:26:09;7.70;99.90
15656;DHT22;7928;43.614;1.456;2024-02-28T03:28:36;7.70;99.90
15656;DHT22;7928;43.614;1.456;2024-02-28T03:31:03;7.70;99.90
15656;DHT22;7928;43.614;1.456;2024-02-28T03:33:32;7.70;99.90
15656;DHT22;7928;43.614;1.456;2024-02-28T03:36:00;7.70;99.90
15656;DHT22;7928;43.614;1.456;2024-02-28T03:38:28;7.70;99.90
15656;DHT22;7928;43.614;1.456;2024-02-28T03:40:55;7.60;99.90
15656;DHT22;7928;43.614;1.456;2024-02-28T03:43:22;7.60;99.90
15656;DHT22;7928;43.614;1.456;2024-02-28T03:45:49;7.60;99.90
15656;DHT22;7928;43.614;1.456;2024-02-28T03:48:16;7.70;99.90
15656;DHT22;7928;43.614;1.456;2024-02-28T03:50:44;7.60;99.90
15656;DHT22;7928;43.614;1.456;2024-02-28T03:53:11;7.70;99.90
15656;DHT22;7928;43.614;1.456;2024-02-28T03:55:38;7.60;99.90
15656;DHT22;7928;43.614;1.456;2024-02-28T03:58:05;7.60;99.90
15656;DHT22;7928;43.614;1.456;2024-02-28T04:00:34;7.60;99.90
15656;DHT22;7928;43.614;1.456;2024-02-28T04:03:01;7.60;99.90
15656;DHT22;7928;43.614;1.456;2024-02-28T04:05:29;7.60;99.90
15656;DHT22;7928;43.614;1.456;2024-02-28T04:07:57;7.60;99.90
15656;DHT22;7928;43.614;1.456;2024-02-28T04:10:24;7.50;99.90
15656;DHT22;7928;43.614;1.456;2024-02-28T04:12:51;7.60;99.90
15656;DHT22;7928;43.614;1.456;2024-02-28T04:15:18;7.60;99.90
15656;DHT22;7928;43.614;1.456;2024-02-28T04:17:45;7.60;99.90
15656;DHT22;7928;43.614;1.456;2024-02-28T04:20:13;7.60;99.90
15656;DHT22;7928;43.614;1.456;2024-02-28T04:22:40;7.50;99.90
15656;DHT22;7928;43.614;1.456;2024-02-28T04:25:10;7.50;99.90
15656;DHT22;7928;43.614;1.456;2024-02-28T04:27:37;7.50;99.90
15656;DHT22;7928;43.614;1.456;2024-02-28T04:30:05;7.50;99.90
15656;DHT22;7928;43.614;1.456;2024-02-28T04:32:32;7.50;99.90
15656;DHT22;7928;43.614;1.456;2024-02-28T04:35:01;7.50;99.90
15656;DHT22;7928;43.614;1.456;2024-02-28T04:37:28;7.50;99.90
15656;DHT22;7928;43.614;1.456;2024-02-28T04:39:55;7.50;99.90
15656;DHT22;7928;43.614;1.456;2024-02-28T04:42:23;7.50;99.90
15656;DHT22;7928;43.614;1.456;2024-02-28T04:44:50;7.50;99.90
15656;DHT22;7928;43.614;1.456;2024-02-28T04:47:17;7.50;99.90
15656;DHT22;7928;43.614;1.456;2024-02-28T04:49:44;7.50;99.90
15656;DHT22;7928;43.614;1.456;2024-02-28T04:52:12;7.50;99.90
15656;DHT22;7928;43.614;1.456;2024-02-28T04:54:40;7.50;99.90
15656;DHT22;7928;43.614;1.456;2024-02-28T04:57:07;7.50;99.90
15656;DHT22;7928;43.614;1.456;2024-02-28T04:59:36;7.50;99.90
15656;DHT22;7928;43.614;1.456;2024-02-28T05:02:03;7.50;99.90
15656;DHT22;7928;43.614;1.456;2024-02-28T05:04:30;7.50;99.90
15656;DHT22;7928;43.614;1.456;2024-02-28T05:06:57;7.50;99.90
15656;DHT22;7928;43.614;1.456;2024-02-28T05:09:24;7.50;99.90
15656;DHT22;7928;43.614;1.456;2024-02-28T05:11:51;7.50;99.90
15656;DHT22;7928;43.614;1.456;2024-02-28T05:14:18;7.40;99.90
15656;DHT22;7928;43.614;1.456;2024-02-28T05:16:48;7.50;99.90
15656;DHT22;7928;43.614;1.456;2024-02-28T05:19:15;7.40;99.90
15656;DHT22;7928;43.614;1.456;2024-02-28T05:21:43;7.40;99.90
15656;DHT22;7928;43.614;1.456;2024-02-28T05:24:10;7.40;99.90
15656;DHT22;7928;43.614;1.456;2024-02-28T05:26:38;7.40;99.90
15656;DHT22;7928;43.614;1.456;2024-02-28T05:29:05;7.30;99.90
15656;DHT22;7928;43.614;1.456;2024-02-28T05:31:33;7.40;99.90
15656;DHT22;7928;43.614;1.456;2024-02-28T05:34:03;7.40;99.90
15656;DHT22;7928;43.614;1.456;2024-02-28T05:36:31;7.30;99.90
15656;DHT22;7928;43.614;1.456;2024-02-28T05:38:59;7.40;99.90
15656;DHT22;7928;43.614;1.456;2024-02-28T05:41:27;7.30;99.90
15656;DHT22;7928;43.614;1.456;2024-02-28T05:43:54;7.30;99.90
15656;DHT22;7928;43.614;1.456;2024-02-28T05:46:21;7.30;99.90
15656;DHT22;7928;43.614;1.456;2024-02-28T05:48:49;7.30;99.90
15656;DHT22;7928;43.614;1.456;2024-02-28T05:51:18;7.30;99.90
15656;DHT22;7928;43.614;1.456;2024-02-28T05:53:45;7.30;99.90
15656;DHT22;7928;43.614;1.456;2024-02-28T05:56:12;7.30;99.90
15656;DHT22;7928;43.614;1.456;2024-02-28T05:58:41;7.30;99.90
15656;DHT22;7928;43.614;1.456;2024-02-28T06:01:09;7.30;99.90
15656;DHT22;7928;43.614;1.456;2024-02-28T06:03:36;7.20;99.90
15656;DHT22;7928;43.614;1.456;2024-02-28T06:06:03;7.20;99.90
15656;DHT22;7928;43.614;1.456;2024-02-28T06:08:34;7.20;99.90
15656;DHT22;7928;43.614;1.456;2024-02-28T06:11:01;7.20;99.90
15656;DHT22;7928;43.614;1.456;2024-02-28T06:13:28;7.30;99.90
15656;DHT22;7928;43.614;1.456;2024-02-28T06:15:55;7.20;99.90
15656;DHT22;7928;43.614;1.456;2024-02-28T06:18:23;7.20;99.90
15656;DHT22;7928;43.614;1.456;2024-02-28T06:20:52;7.20;99.90
15656;DHT22;7928;43.614;1.456;2024-02-28T06:23:20;7.20;99.90
15656;DHT22;7928;43.614;1.456;2024-02-28T06:25:49;7.20;99.90
15656;DHT22;7928;43.614;1.456;2024-02-28T06:28:16;7.20;99.90
15656;DHT22;7928;43.614;1.456;2024-02-28T06:30:43;7.20;99.90
15656;DHT22;7928;43.614;1.456;2024-02-28T06:33:11;7.20;99.90
15656;DHT22;7928;43.614;1.456;2024-02-28T06:35:39;7.20;99.90
15656;DHT22;7928;43.614;1.456;2024-02-28T06:38:06;7.20;99.90
15656;DHT22;7928;43.614;1.456;2024-02-28T06:40:34;7.20;99.90
15656;DHT22;7928;43.614;1.456;2024-02-28T06:43:03;7.10;99.90
15656;DHT22;7928;43.614;1.456;2024-02-28T06:45:30;7.10;99.90
15656;DHT22;7928;43.614;1.456;2024-02-28T06:47:57;7.10;99.90
15656;DHT22;7928;43.614;1.456;2024-02-28T06:50:24;7.10;99.90
15656;DHT22;7928;43.614;1.456;2024-02-28T06:52:51;7.10;99.90
15656;DHT22;7928;43.614;1.456;2024-02-28T06:55:19;7.10;99.90
15656;DHT22;7928;43.614;1.456;2024-02-28T06:57:46;7.10;99.90
15656;DHT22;7928;43.614;1.456;2024-02-28T07:00:15;7.10;99.90
15656;DHT22;7928;43.614;1.456;2024-02-28T07:02:44;7.10;99.90
15656;DHT22;7928;43.614;1.456;2024-02-28T07:05:12;7.20;99.90
15656;DHT22;7928;43.614;1.456;2024-02-28T07:07:39;7.20;99.90
15656;DHT22;7928;43.614;1.456;2024-02-28T07:10:06;7.20;99.90
15656;DHT22;7928;43.614;1.456;2024-02-28T07:12:33;7.20;99.90
15656;DHT22;7928;43.614;1.456;2024-02-28T07:15:00;7.20;99.90
15656;DHT22;7928;43.614;1.456;2024-02-28T07:17:29;7.20;99.90
15656;DHT22;7928;43.614;1.456;2024-02-28T07:19:55;7.20;99.90
15656;DHT22;7928;43.614;1.456;2024-02-28T07:22:23;7.20;99.90
15656;DHT22;7928;43.614;1.456;2024-02-28T07:24:49;7.20;99.90
15656;DHT22;7928;43.614;1.456;2024-02-28T07:27:16;7.10;99.90
15656;DHT22;7928;43.614;1.456;2024-02-28T07:29:44;7.20;99.90
15656;DHT22;7928;43.614;1.456;2024-02-28T07:32:11;7.20;99.90
15656;DHT22;7928;43.614;1.456;2024-02-28T07:34:40;7.20;99.90
15656;DHT22;7928;43.614;1.456;2024-02-28T07:37:07;7.20;99.90
15656;DHT22;7928;43.614;1.456;2024-02-28T07:39:34;7.20;99.90
15656;DHT22;7928;43.614;1.456;2024-02-28T07:42:01;7.20;99.90
15656;DHT22;7928;43.614;1.456;2024-02-28T07:44:28;7.20;99.90
15656;DHT22;7928;43.614;1.456;2024-02-28T07:46:57;7.20;99.90
15656;DHT22;7928;43.614;1.456;2024-02-28T07:49:24;7.20;99.90
15656;DHT22;7928;43.614;1.456;2024-02-28T07:51:52;7.20;99.90
15656;DHT22;7928;43.614;1.456;2024-02-28T07:54:20;7.20;99.90
15656;DHT22;7928;43.614;1.456;2024-02-28T07:56:48;7.30;99.90
15656;DHT22;7928;43.614;1.456;2024-02-28T07:59:15;7.30;99.90
15656;DHT22;7928;43.614;1.456;2024-02-28T08:01:42;7.30;99.90
15656;DHT22;7928;43.614;1.456;2024-02-28T08:04:09;7.30;99.90
15656;DHT22;7928;43.614;1.456;2024-02-28T08:06:39;7.20;99.90
15656;DHT22;7928;43.614;1.456;2024-02-28T08:09:07;7.20;99.90
15656;DHT22;7928;43.614;1.456;2024-02-28T08:11:34;7.20;99.90
15656;DHT22;7928;43.614;1.456;2024-02-28T08:14:01;7.30;99.90
15656;DHT22;7928;43.614;1.456;2024-02-28T08:16:29;7.30;99.90
15656;DHT22;7928;43.614;1.456;2024-02-28T08:18:56;7.30;99.90
15656;DHT22;7928;43.614;1.456;2024-02-28T08:21:24;7.30;99.90
15656;DHT22;7928;43.614;1.456;2024-02-28T08:23:52;7.40;99.90
15656;DHT22;7928;43.614;1.456;2024-02-28T08:26:20;7.30;99.90
15656;DHT22;7928;43.614;1.456;2024-02-28T08:28:47;7.30;99.90
15656;DHT22;7928;43.614;1.456;2024-02-28T08:31:15;7.40;99.90
15656;DHT22;7928;43.614;1.456;2024-02-28T08:33:42;7.40;99.90
15656;DHT22;7928;43.614;1.456;2024-02-28T08:36:09;7.30;99.90
15656;DHT22;7928;43.614;1.456;2024-02-28T08:38:36;7.30;99.90
15656;DHT22;7928;43.614;1.456;2024-02-28T08:41:04;7.30;99.90
15656;DHT22;7928;43.614;1.456;2024-02-28T08:43:37;7.30;99.90
15656;DHT22;7928;43.614;1.456;2024-02-28T08:46:04;7.30;99.90
15656;DHT22;7928;43.614;1.456;2024-02-28T08:48:31;7.30;99.90
15656;DHT22;7928;43.614;1.456;2024-02-28T08:50:58;7.20;99.90
15656;DHT22;7928;43.614;1.456;2024-02-28T08:53:26;7.20;99.90
15656;DHT22;7928;43.614;1.456;2024-02-28T08:55:54;7.20;99.90
15656;DHT22;7928;43.614;1.456;2024-02-28T08:58:21;7.30;99.90
15656;DHT22;7928;43.614;1.456;2024-02-28T09:00:50;7.40;99.90
15656;DHT22;7928;43.614;1.456;2024-02-28T09:03:17;7.50;99.90
15656;DHT22;7928;43.614;1.456;2024-02-28T09:05:45;7.50;99.90
15656;DHT22;7928;43.614;1.456;2024-02-28T09:08:12;7.50;99.90
15656;DHT22;7928;43.614;1.456;2024-02-28T09:10:39;7.60;99.90
15656;DHT22;7928;43.614;1.456;2024-02-28T09:13:06;7.70;99.90
15656;DHT22;7928;43.614;1.456;2024-02-28T09:15:43;7.80;99.90
15656;DHT22;7928;43.614;1.456;2024-02-28T09:18:11;7.80;99.90
15656;DHT22;7928;43.614;1.456;2024-02-28T09:20:38;8.00;99.90
15656;DHT22;7928;43.614;1.456;2024-02-28T09:23:06;8.00;99.90
15656;DHT22;7928;43.614;1.456;2024-02-28T09:25:33;8.10;99.90
15656;DHT22;7928;43.614;1.456;2024-02-28T09:28:01;8.10;99.90
15656;DHT22;7928;43.614;1.456;2024-02-28T09:30:28;8.20;99.90
15656;DHT22;7928;43.614;1.456;2024-02-28T09:32:55;8.20;99.90
15656;DHT22;7928;43.614;1.456;2024-02-28T09:35:24;8.60;99.90
15656;DHT22;7928;43.614;1.456;2024-02-28T09:37:51;8.80;99.90
15656;DHT22;7928;43.614;1.456;2024-02-28T09:40:18;9.00;99.90
15656;DHT22;7928;43.614;1.456;2024-02-28T09:42:49;9.20;99.90
15656;DHT22;7928;43.614;1.456;2024-02-28T09:45:20;9.30;99.90
15656;DHT22;7928;43.614;1.456;2024-02-28T09:47:47;9.40;99.90
15656;DHT22;7928;43.614;1.456;2024-02-28T09:50:14;9.70;99.90
15656;DHT22;7928;43.614;1.456;2024-02-28T09:52:43;9.90;99.90
15656;DHT22;7928;43.614;1.456;2024-02-28T09:55:10;10.10;99.90
15656;DHT22;7928;43.614;1.456;2024-02-28T09:57:38;10.10;99.90
15656;DHT22;7928;43.614;1.456;2024-02-28T10:00:06;10.00;99.90
15656;DHT22;7928;43.614;1.456;2024-02-28T10:02:37;9.80;99.90
15656;DHT22;7928;43.614;1.456;2024-02-28T10:05:05;9.60;99.90
15656;DHT22;7928;43.614;1.456;2024-02-28T10:07:33;9.60;99.90
15656;DHT22;7928;43.614;1.456;2024-02-28T10:10:01;10.00;99.90
15656;DHT22;7928;43.614;1.456;2024-02-28T10:12:29;10.20;99.90
15656;DHT22;7928;43.614;1.456;2024-02-28T10:14:56;10.20;99.90
15656;DHT22;7928;43.614;1.456;2024-02-28T10:17:23;10.00;99.90
15656;DHT22;7928;43.614;1.456;2024-02-28T10:19:51;9.90;99.90
15656;DHT22;7928;43.614;1.456;2024-02-28T10:22:18;9.90;99.90
15656;DHT22;7928;43.614;1.456;2024-02-28T10:24:46;10.00;99.90
15656;DHT22;7928;43.614;1.456;2024-02-28T10:27:17;9.90;99.90
15656;DHT22;7928;43.614;1.456;2024-02-28T10:29:45;9.80;99.90
15656;DHT22;7928;43.614;1.456;2024-02-28T10:32:12;9.70;99.90
15656;DHT22;7928;43.614;1.456;2024-02-28T10:34:39;10.00;99.90
15656;DHT22;7928;43.614;1.456;2024-02-28T10:37:07;10.10;99.90
15656;DHT22;7928;43.614;1.456;2024-02-28T10:39:36;10.00;99.90
15656;DHT22;7928;43.614;1.456;2024-02-28T10:42:05;10.00;99.90
15656;DHT22;7928;43.614;1.456;2024-02-28T10:44:35;10.20;99.90
15656;DHT22;7928;43.614;1.456;2024-02-28T10:47:03;10.30;99.90
15656;DHT22;7928;43.614;1.456;2024-02-28T10:49:30;10.50;99.90
15656;DHT22;7928;43.614;1.456;2024-02-28T10:51:59;10.50;99.90
15656;DHT22;7928;43.614;1.456;2024-02-28T10:54:28;10.70;99.90
15656;DHT22;7928;43.614;1.456;2024-02-28T10:56:56;11.00;99.90
15656;DHT22;7928;43.614;1.456;2024-02-28T10:59:25;11.50;99.90
15656;DHT22;7928;43.614;1.456;2024-02-28T11:01:56;12.30;99.90
15656;DHT22;7928;43.614;1.456;2024-02-28T11:04:24;12.40;99.90
15656;DHT22;7928;43.614;1.456;2024-02-28T11:06:56;14.10;99.90
15656;DHT22;7928;43.614;1.456;2024-02-28T11:09:25;15.40;99.90
15656;DHT22;7928;43.614;1.456;2024-02-28T11:11:53;15.30;99.90
15656;DHT22;7928;43.614;1.456;2024-02-28T11:14:21;15.60;99.90
15656;DHT22;7928;43.614;1.456;2024-02-28T11:17:01;16.70;99.90
15656;DHT22;7928;43.614;1.456;2024-02-28T11:19:29;18.70;99.90
15656;DHT22;7928;43.614;1.456;2024-02-28T11:21:57;19.60;99.90
15656;DHT22;7928;43.614;1.456;2024-02-28T11:24:24;19.90;99.90
15656;DHT22;7928;43.614;1.456;2024-02-28T11:26:52;21.20;99.90
15656;DHT22;7928;43.614;1.456;2024-02-28T11:29:24;21.90;99.90
15656;DHT22;7928;43.614;1.456;2024-02-28T11:31:51;22.90;98.20
15656;DHT22;7928;43.614;1.456;2024-02-28T11:34:20;22.90;96.60
15656;DHT22;7928;43.614;1.456;2024-02-28T11:36:48;23.00;94.90
15656;DHT22;7928;43.614;1.456;2024-02-28T11:39:16;22.20;93.70
15656;DHT22;7928;43.614;1.456;2024-02-28T11:41:43;20.70;94.80
15656;DHT22;7928;43.614;1.456;2024-02-28T11:44:13;20.60;95.40
15656;DHT22;7928;43.614;1.456;2024-02-28T11:46:44;21.30;94.40
15656;DHT22;7928;43.614;1.456;2024-02-28T11:49:12;21.10;95.90
15656;DHT22;7928;43.614;1.456;2024-02-28T11:51:41;21.50;94.80
15656;DHT22;7928;43.614;1.456;2024-02-28T11:54:09;21.60;94.20
15656;DHT22;7928;43.614;1.456;2024-02-28T11:56:37;20.40;94.60
15656;DHT22;7928;43.614;1.456;2024-02-28T11:59:05;18.80;95.60
15656;DHT22;7928;43.614;1.456;2024-02-28T12:01:34;17.70;97.10
15656;DHT22;7928;43.614;1.456;2024-02-28T12:04:02;18.90;97.20
15656;DHT22;7928;43.614;1.456;2024-02-28T12:06:30;19.00;97.50
15656;DHT22;7928;43.614;1.456;2024-02-28T12:08:59;19.50;96.10
15656;DHT22;7928;43.614;1.456;2024-02-28T12:11:26;19.10;95.40
15656;DHT22;7928;43.614;1.456;2024-02-28T12:13:55;18.70;95.90
15656;DHT22;7928;43.614;1.456;2024-02-28T12:16:24;17.80;96.90
15656;DHT22;7928;43.614;1.456;2024-02-28T12:18:52;19.40;97.30
15656;DHT22;7928;43.614;1.456;2024-02-28T12:21:19;20.20;95.50
15656;DHT22;7928;43.614;1.456;2024-02-28T12:23:46;19.60;94.60
15656;DHT22;7928;43.614;1.456;2024-02-28T12:26:17;18.40;96.60
15656;DHT22;7928;43.614;1.456;2024-02-28T12:28:45;19.40;96.50
15656;DHT22;7928;43.614;1.456;2024-02-28T12:31:12;20.40;94.50
15656;DHT22;7928;43.614;1.456;2024-02-28T12:33:39;21.40;93.60
15656;DHT22;7928;43.614;1.456;2024-02-28T12:36:07;22.00;92.30
15656;DHT22;7928;43.614;1.456;2024-02-28T12:38:34;21.60;91.00
15656;DHT22;7928;43.614;1.456;2024-02-28T12:41:03;20.70;90.80
15656;DHT22;7928;43.614;1.456;2024-02-28T12:43:31;19.90;91.80
15656;DHT22;7928;43.614;1.456;2024-02-28T12:45:59;19.70;92.10
15656;DHT22;7928;43.614;1.456;2024-02-28T12:48:26;18.70;93.70
15656;DHT22;7928;43.614;1.456;2024-02-28T12:50:53;19.00;93.50
15656;DHT22;7928;43.614;1.456;2024-02-28T12:53:20;19.90;92.20
15656;DHT22;7928;43.614;1.456;2024-02-28T12:55:47;20.20;91.80
15656;DHT22;7928;43.614;1.456;2024-02-28T12:58:14;20.30;91.20
15656;DHT22;7928;43.614;1.456;2024-02-28T13:00:42;21.70;90.40
15656;DHT22;7928;43.614;1.456;2024-02-28T13:03:09;21.00;89.00
15656;DHT22;7928;43.614;1.456;2024-02-28T13:05:36;21.60;91.40
15656;DHT22;7928;43.614;1.456;2024-02-28T13:08:04;22.90;90.80
15656;DHT22;7928;43.614;1.456;2024-02-28T13:10:31;22.30;85.90
15656;DHT22;7928;43.614;1.456;2024-02-28T13:13:00;22.40;86.20
15656;DHT22;7928;43.614;1.456;2024-02-28T13:15:27;21.80;85.20
15656;DHT22;7928;43.614;1.456;2024-02-28T13:17:56;22.20;87.40
15656;DHT22;7928;43.614;1.456;2024-02-28T13:20:23;22.80;86.30
15656;DHT22;7928;43.614;1.456;2024-02-28T13:22:50;22.70;85.10
15656;DHT22;7928;43.614;1.456;2024-02-28T13:25:17;22.40;84.00
15656;DHT22;7928;43.614;1.456;2024-02-28T13:27:45;21.30;85.80
15656;DHT22;7928;43.614;1.456;2024-02-28T13:30:13;20.50;86.10
15656;DHT22;7928;43.614;1.456;2024-02-28T13:32:40;20.90;85.20
15656;DHT22;7928;43.614;1.456;2024-02-28T13:35:09;21.50;84.10
15656;DHT22;7928;43.614;1.456;2024-02-28T13:37:37;22.30;82.60
15656;DHT22;7928;43.614;1.456;2024-02-28T13:40:07;22.80;82.90
15656;DHT22;7928;43.614;1.456;2024-02-28T13:42:36;22.20;82.50
15656;DHT22;7928;43.614;1.456;2024-02-28T13:45:04;22.00;79.40
15656;DHT22;7928;43.614;1.456;2024-02-28T13:47:32;21.60;78.70
15656;DHT22;7928;43.614;1.456;2024-02-28T13:50:01;21.80;80.80
15656;DHT22;7928;43.614;1.456;2024-02-28T13:52:29;21.10;79.70
15656;DHT22;7928;43.614;1.456;2024-02-28T13:54:56;21.30;82.10
15656;DHT22;7928;43.614;1.456;2024-02-28T13:57:23;21.70;78.00
15656;DHT22;7928;43.614;1.456;2024-02-28T13:59:51;22.00;79.70
15656;DHT22;7928;43.614;1.456;2024-02-28T14:02:20;22.60;81.00
15656;DHT22;7928;43.614;1.456;2024-02-28T14:04:47;23.00;78.10
15656;DHT22;7928;43.614;1.456;2024-02-28T14:07:15;23.30;78.30
15656;DHT22;7928;43.614;1.456;2024-02-28T14:09:44;23.10;78.40
15656;DHT22;7928;43.614;1.456;2024-02-28T14:12:11;24.30;78.40
15656;DHT22;7928;43.614;1.456;2024-02-28T14:14:38;24.30;76.20
15656;DHT22;7928;43.614;1.456;2024-02-28T14:17:06;23.50;74.60
15656;DHT22;7928;43.614;1.456;2024-02-28T14:19:33;24.00;73.70
15656;DHT22;7928;43.614;1.456;2024-02-28T14:22:02;24.10;73.40
15656;DHT22;7928;43.614;1.456;2024-02-28T14:24:30;24.60;72.60
15656;DHT22;7928;43.614;1.456;2024-02-28T14:26:58;24.40;70.80
15656;DHT22;7928;43.614;1.456;2024-02-28T14:29:25;24.50;70.70
15656;DHT22;7928;43.614;1.456;2024-02-28T14:31:52;24.50;72.20
15656;DHT22;7928;43.614;1.456;2024-02-28T14:34:19;25.10;72.20
15656;DHT22;7928;43.614;1.456;2024-02-28T14:36:48;25.90;69.20
15656;DHT22;7928;43.614;1.456;2024-02-28T14:39:15;25.90;69.60
15656;DHT22;7928;43.614;1.456;2024-02-28T14:41:43;25.10;65.90
15656;DHT22;7928;43.614;1.456;2024-02-28T14:44:12;24.30;67.10
15656;DHT22;7928;43.614;1.456;2024-02-28T14:46:41;25.00;66.80
15656;DHT22;7928;43.614;1.456;2024-02-28T14:49:08;24.20;65.40
15656;DHT22;7928;43.614;1.456;2024-02-28T14:51:35;24.10;67.30
15656;DHT22;7928;43.614;1.456;2024-02-28T14:54:02;24.70;65.50
15656;DHT22;7928;43.614;1.456;2024-02-28T14:56:30;25.40;64.40
15656;DHT22;7928;43.614;1.456;2024-02-28T14:58:58;25.30;64.50
15656;DHT22;7928;43.614;1.456;2024-02-28T15:01:26;25.40;61.90
15656;DHT22;7928;43.614;1.456;2024-02-28T15:03:54;25.50;61.40
15656;DHT22;7928;43.614;1.456;2024-02-28T15:06:21;25.10;62.70
15656;DHT22;7928;43.614;1.456;2024-02-28T15:08:48;25.90;62.40
15656;DHT22;7928;43.614;1.456;2024-02-28T15:11:15;26.70;61.20
15656;DHT22;7928;43.614;1.456;2024-02-28T15:13:42;27.00;60.90
15656;DHT22;7928;43.614;1.456;2024-02-28T15:16:10;27.30;61.10
15656;DHT22;7928;43.614;1.456;2024-02-28T15:18:38;27.30;58.60
15656;DHT22;7928;43.614;1.456;2024-02-28T15:21:07;25.50;59.30
15656;DHT22;7928;43.614;1.456;2024-02-28T15:23:34;25.90;59.50
15656;DHT22;7928;43.614;1.456;2024-02-28T15:26:01;26.10;59.20
15656;DHT22;7928;43.614;1.456;2024-02-28T15:28:29;26.40;59.90
15656;DHT22;7928;43.614;1.456;2024-02-28T15:30:56;26.20;58.20
15656;DHT22;7928;43.614;1.456;2024-02-28T15:33:23;25.90;58.00
15656;DHT22;7928;43.614;1.456;2024-02-28T15:35:54;26.00;58.80
15656;DHT22;7928;43.614;1.456;2024-02-28T15:38:21;25.70;58.60
15656;DHT22;7928;43.614;1.456;2024-02-28T15:40:48;26.00;58.50
15656;DHT22;7928;43.614;1.456;2024-02-28T15:43:15;26.00;58.20
15656;DHT22;7928;43.614;1.456;2024-02-28T15:45:42;26.50;58.00
15656;DHT22;7928;43.614;1.456;2024-02-28T15:48:09;26.70;58.40
15656;DHT22;7928;43.614;1.456;2024-02-28T15:50:36;26.30;57.70
15656;DHT22;7928;43.614;1.456;2024-02-28T15:53:05;25.60;56.80
15656;DHT22;7928;43.614;1.456;2024-02-28T15:55:33;24.50;58.20
15656;DHT22;7928;43.614;1.456;2024-02-28T15:58:00;24.30;58.80